Time;durP1;ratioP1;P1;durP2;ratioP2;P2;SDS_P1;SDS_P2;PMS_P1;PMS_P2;Temp;Humidity;BMP_temperature;BMP_pressure;BME280_temperature;BME280_humidity;BME280_pressure;Samples;Min_cycle;Max_cycle;Signal;HPM_P1;HPM_P2
2022/01/29 00:00:13;;;;;;;;;;;16.20;45.30;;;;;;5092538;28;19912;-64
2022/01/29 00:02:39;;;;;;;;;;;16.20;45.40;;;;;;5074957;28;19908;-64
2022/01/29 00:05:05;;;;;;;;;;;16.10;45.40;;;;;;5093015;28;19919;-64
2022/01/29 00:07:30;;;;;;;;;;;16.10;45.40;;;;;;5091841;28;20280;-64
2022/01/29 00:10:02;;;;;;;;;;;16.10;45.50;;;;;;5092944;28;19935;-63
2022/01/29 00:12:28;;;;;;;;;;;16.10;45.50;;;;;;5098660;28;20335;-63
2022/01/29 00:14:53;;;;;;;;;;;16.10;45.50;;;;;;5092878;28;19948;-63
2022/01/29 00:17:19;;;;;;;;;;;16.10;45.60;;;;;;5125031;27;19912;-63
2022/01/29 00:19:44;;;;;;;;;;;16.00;45.70;;;;;;5092513;28;19986;-63
2022/01/29 00:22:10;;;;;;;;;;;16.00;45.80;;;;;;5092589;28;19912;-63
2022/01/29 00:24:36;;;;;;;;;;;16.00;45.70;;;;;;5092690;28;19953;-63
2022/01/29 00:27:08;;;;;;;;;;;16.00;45.60;;;;;;5092485;28;20336;-63
2022/01/29 00:29:34;;;;;;;;;;;16.00;45.70;;;;;;5099448;28;19908;-63
2022/01/29 00:32:00;;;;;;;;;;;15.90;45.80;;;;;;5092118;28;19937;-63
2022/01/29 00:34:25;;;;;;;;;;;15.90;45.90;;;;;;5092582;28;19934;-63
2022/01/29 00:36:51;;;;;;;;;;;15.90;45.80;;;;;;5092455;28;19957;-63
2022/01/29 00:39:16;;;;;;;;;;;15.90;45.90;;;;;;5092563;28;20009;-63
2022/01/29 00:41:42;;;;;;;;;;;15.90;46.00;;;;;;5092520;28;19908;-63
2022/01/29 00:44:07;;;;;;;;;;;15.90;45.90;;;;;;5092384;28;19908;-63
2022/01/29 00:46:33;;;;;;;;;;;15.90;45.90;;;;;;5092015;28;19912;-63
2022/01/29 00:48:58;;;;;;;;;;;15.90;45.90;;;;;;5092481;28;19908;-63
2022/01/29 00:51:24;;;;;;;;;;;15.90;45.90;;;;;;5092223;28;19918;-63
2022/01/29 00:53:49;;;;;;;;;;;15.90;46.00;;;;;;5092639;28;19911;-63
2022/01/29 00:56:15;;;;;;;;;;;15.90;46.00;;;;;;5092348;28;19912;-63
2022/01/29 00:58:40;;;;;;;;;;;15.90;46.00;;;;;;5090967;28;19908;-63
2022/01/29 01:01:06;;;;;;;;;;;15.80;45.90;;;;;;5091724;28;19938;-63
2022/01/29 01:03:31;;;;;;;;;;;15.90;46.00;;;;;;5092984;28;19908;-63
2022/01/29 01:05:57;;;;;;;;;;;15.80;46.00;;;;;;5095149;28;19908;-63
2022/01/29 01:08:22;;;;;;;;;;;15.80;46.10;;;;;;5096486;28;19909;-63
2022/01/29 01:10:48;;;;;;;;;;;15.80;46.10;;;;;;5096133;28;19974;-63
2022/01/29 01:13:13;;;;;;;;;;;15.80;46.10;;;;;;5096334;28;19931;-63
2022/01/29 01:15:38;;;;;;;;;;;15.80;46.00;;;;;;5077643;28;19931;-63
2022/01/29 01:18:04;;;;;;;;;;;15.80;46.00;;;;;;5096235;28;19930;-63
2022/01/29 01:20:29;;;;;;;;;;;15.80;46.00;;;;;;5095849;28;19931;-63
2022/01/29 01:22:55;;;;;;;;;;;15.80;46.00;;;;;;5128943;27;19915;-63
2022/01/29 01:25:20;;;;;;;;;;;15.80;46.10;;;;;;5095830;28;19908;-63
2022/01/29 01:27:46;;;;;;;;;;;15.80;46.00;;;;;;5095981;28;19961;-63
2022/01/29 01:30:11;;;;;;;;;;;15.80;46.10;;;;;;5094405;28;19908;-63
2022/01/29 01:32:37;;;;;;;;;;;15.80;46.00;;;;;;5095919;28;19930;-63
2022/01/29 01:35:19;;;;;;;;;;;15.80;46.00;;;;;;5095785;28;19981;-64
2022/01/29 01:37:51;;;;;;;;;;;15.80;46.10;;;;;;5095869;28;19920;-64
2022/01/29 01:40:17;;;;;;;;;;;15.80;46.10;;;;;;5094363;28;19961;-64
2022/01/29 01:42:43;;;;;;;;;;;15.80;46.00;;;;;;5095752;28;19995;-63
2022/01/29 01:45:08;;;;;;;;;;;15.80;46.20;;;;;;5095263;28;20391;-63
2022/01/29 01:47:34;;;;;;;;;;;15.80;46.30;;;;;;5094672;28;20483;-63
2022/01/29 01:49:59;;;;;;;;;;;15.70;46.20;;;;;;5077290;28;19912;-63
2022/01/29 01:52:25;;;;;;;;;;;15.70;46.20;;;;;;5095784;28;19919;-63
2022/01/29 01:54:50;;;;;;;;;;;15.70;46.20;;;;;;5094352;28;19958;-63
2022/01/29 01:57:17;;;;;;;;;;;15.70;46.30;;;;;;5094057;28;19909;-63
2022/01/29 01:59:43;;;;;;;;;;;15.70;46.40;;;;;;5095432;28;19951;-63
2022/01/29 02:02:08;;;;;;;;;;;15.70;46.50;;;;;;5076712;28;19974;-63
2022/01/29 02:04:34;;;;;;;;;;;15.60;46.40;;;;;;5095286;28;19939;-63
2022/01/29 02:07:01;;;;;;;;;;;15.60;46.40;;;;;;5095010;28;19912;-62
2022/01/29 02:09:27;;;;;;;;;;;15.60;46.50;;;;;;5095621;28;19915;-62
2022/01/29 02:11:53;;;;;;;;;;;15.60;46.60;;;;;;5095138;28;20284;-62
2022/01/29 02:14:19;;;;;;;;;;;15.50;46.70;;;;;;5095037;28;19908;-63
2022/01/29 02:16:45;;;;;;;;;;;15.50;46.90;;;;;;5094697;28;19920;-64
2022/01/29 02:19:10;;;;;;;;;;;15.50;46.90;;;;;;5127362;27;19935;-63
2022/01/29 02:21:36;;;;;;;;;;;15.50;46.80;;;;;;5095042;28;20005;-63
2022/01/29 02:24:01;;;;;;;;;;;15.60;46.70;;;;;;5095109;28;19908;-63
2022/01/29 02:26:27;;;;;;;;;;;15.80;46.40;;;;;;5094806;28;19914;-63
2022/01/29 02:28:54;;;;;;;;;;;15.90;46.10;;;;;;5094879;28;20372;-63
2022/01/29 02:31:19;;;;;;;;;;;16.10;45.80;;;;;;5093248;28;19912;-63
2022/01/29 02:33:45;;;;;;;;;;;16.20;45.50;;;;;;5127726;27;19908;-63
2022/01/29 02:36:10;;;;;;;;;;;16.30;45.40;;;;;;5094508;28;19908;-63
2022/01/29 02:38:36;;;;;;;;;;;16.40;45.20;;;;;;5094677;28;19961;-63
2022/01/29 02:41:04;;;;;;;;;;;16.40;45.10;;;;;;5094464;28;19913;-63
2022/01/29 02:43:36;;;;;;;;;;;16.50;45.00;;;;;;5094831;28;20389;-63
2022/01/29 02:46:07;;;;;;;;;;;16.50;44.90;;;;;;5099737;28;19939;-63
2022/01/29 02:48:33;;;;;;;;;;;16.70;44.80;;;;;;5077175;28;20292;-63
2022/01/29 02:50:58;;;;;;;;;;;16.70;44.50;;;;;;5093184;28;20277;-63
2022/01/29 02:53:24;;;;;;;;;;;16.80;44.50;;;;;;5094322;28;19912;-63
2022/01/29 02:55:49;;;;;;;;;;;16.90;44.30;;;;;;5094262;28;19985;-63
2022/01/29 02:58:14;;;;;;;;;;;17.00;44.10;;;;;;5094203;28;20265;-63
2022/01/29 03:00:40;;;;;;;;;;;17.00;43.90;;;;;;5093660;28;20010;-63
2022/01/29 03:03:05;;;;;;;;;;;17.10;43.90;;;;;;5126995;27;19908;-63
2022/01/29 03:05:31;;;;;;;;;;;17.10;43.80;;;;;;5094001;28;19908;-63
2022/01/29 03:07:56;;;;;;;;;;;17.20;43.80;;;;;;5093985;28;19998;-63
2022/01/29 03:10:23;;;;;;;;;;;17.20;43.70;;;;;;5092721;28;19908;-63
2022/01/29 03:12:48;;;;;;;;;;;17.20;43.60;;;;;;5094653;28;19953;-63
2022/01/29 03:15:14;;;;;;;;;;;17.20;43.60;;;;;;5093829;28;19912;-63
2022/01/29 03:17:39;;;;;;;;;;;17.30;43.60;;;;;;5094063;28;20387;-63
2022/01/29 03:20:05;;;;;;;;;;;17.30;43.50;;;;;;5093487;28;20018;-63
2022/01/29 03:22:30;;;;;;;;;;;17.30;43.50;;;;;;5093892;28;19951;-63
2022/01/29 03:24:56;;;;;;;;;;;17.30;43.40;;;;;;5093680;28;19908;-63
2022/01/29 03:27:21;;;;;;;;;;;17.40;43.50;;;;;;5093011;28;19908;-63
2022/01/29 03:29:47;;;;;;;;;;;17.30;43.40;;;;;;5092563;28;19996;-63
2022/01/29 03:32:12;;;;;;;;;;;17.30;43.40;;;;;;5093054;28;19915;-63
2022/01/29 03:34:38;;;;;;;;;;;17.30;43.40;;;;;;5093646;28;19916;-63
2022/01/29 03:37:03;;;;;;;;;;;17.40;43.50;;;;;;5092229;28;20336;-63
2022/01/29 03:39:29;;;;;;;;;;;17.30;43.60;;;;;;5126297;27;20053;-63
2022/01/29 03:42:00;;;;;;;;;;;17.40;43.50;;;;;;5092101;28;19916;-63
2022/01/29 03:44:25;;;;;;;;;;;17.40;44.10;;;;;;5099258;28;19912;-63
2022/01/29 03:46:51;;;;;;;;;;;17.40;43.50;;;;;;5092819;28;19957;-63
2022/01/29 03:49:16;;;;;;;;;;;17.40;43.50;;;;;;5092064;28;19915;-63
2022/01/29 03:51:42;;;;;;;;;;;17.30;43.40;;;;;;5093400;28;19990;-63
2022/01/29 03:54:07;;;;;;;;;;;17.40;43.50;;;;;;5093209;28;19955;-63
2022/01/29 03:56:32;;;;;;;;;;;17.40;43.50;;;;;;5092868;28;19920;-63
2022/01/29 03:58:58;;;;;;;;;;;17.30;43.40;;;;;;5092913;28;19962;-63
2022/01/29 04:01:23;;;;;;;;;;;17.30;43.50;;;;;;5091308;28;19961;-63
2022/01/29 04:03:49;;;;;;;;;;;17.20;43.70;;;;;;5093057;28;19918;-62
2022/01/29 04:06:15;;;;;;;;;;;17.20;43.80;;;;;;5074732;28;19955;-63
2022/01/29 04:08:42;;;;;;;;;;;17.10;43.80;;;;;;5093131;28;19908;-63
2022/01/29 04:11:08;;;;;;;;;;;17.10;43.80;;;;;;5092909;28;19915;-63
2022/01/29 04:13:34;;;;;;;;;;;17.10;43.90;;;;;;5093545;28;19908;-63
2022/01/29 04:15:59;;;;;;;;;;;17.10;43.90;;;;;;5091083;28;19912;-63
2022/01/29 04:18:24;;;;;;;;;;;17.10;43.90;;;;;;5092759;28;20319;-63
2022/01/29 04:20:50;;;;;;;;;;;17.20;43.90;;;;;;5092493;28;19966;-63
2022/01/29 04:23:15;;;;;;;;;;;17.20;43.80;;;;;;5091632;28;19908;-63
2022/01/29 04:25:41;;;;;;;;;;;17.20;43.80;;;;;;5092599;28;19908;-63
2022/01/29 04:28:09;;;;;;;;;;;17.30;44.50;;;;;;5092613;28;19908;-64
2022/01/29 04:30:44;;;;;;;;;;;17.30;43.70;;;;;;5092189;28;19916;-64
2022/01/29 04:35:44;;;;;;;;;;;17.30;43.70;;;;;;5091403;28;20260;-64
2022/01/29 04:38:09;;;;;;;;;;;17.30;43.70;;;;;;5090309;28;19912;-64
2022/01/29 04:40:35;;;;;;;;;;;17.30;43.60;;;;;;5091156;28;20399;-64
2022/01/29 04:43:04;;;;;;;;;;;17.40;43.70;;;;;;5125351;27;19908;-64
2022/01/29 04:45:29;;;;;;;;;;;17.40;43.70;;;;;;5090751;28;20396;-64
2022/01/29 04:47:55;;;;;;;;;;;17.30;43.60;;;;;;5091108;28;19963;-64
2022/01/29 04:50:20;;;;;;;;;;;17.40;43.80;;;;;;5091035;28;20007;-63
2022/01/29 04:52:46;;;;;;;;;;;17.30;43.70;;;;;;5091196;28;19998;-63
2022/01/29 04:55:11;;;;;;;;;;;17.30;43.70;;;;;;5092309;28;19908;-63
2022/01/29 04:57:37;;;;;;;;;;;17.30;43.70;;;;;;5092397;28;19908;-63
2022/01/29 05:00:07;;;;;;;;;;;17.30;43.70;;;;;;5091836;28;19912;-63
2022/01/29 05:02:33;;;;;;;;;;;17.30;43.70;;;;;;5092264;28;19908;-63
2022/01/29 05:04:58;;;;;;;;;;;17.30;43.80;;;;;;5090988;28;20065;-63
2022/01/29 05:07:24;;;;;;;;;;;17.30;43.80;;;;;;5092249;28;19912;-63
2022/01/29 05:09:49;;;;;;;;;;;17.30;43.80;;;;;;5092294;28;19959;-63
2022/01/29 05:12:20;;;;;;;;;;;17.30;43.80;;;;;;5092242;28;20388;-63
2022/01/29 05:15:05;;;;;;;;;;;17.30;43.80;;;;;;5097848;28;19908;-63
2022/01/29 05:28:34;;;;;;;;;;;17.40;43.90;;;;;;5092411;28;19958;-63
2022/01/29 05:31:00;;;;;;;;;;;17.40;43.90;;;;;;5091810;28;20313;-63
2022/01/29 05:33:25;;;;;;;;;;;17.40;43.90;;;;;;5092053;28;19974;-63
2022/01/29 05:35:51;;;;;;;;;;;17.30;43.80;;;;;;5091864;28;19916;-63
2022/01/29 05:38:16;;;;;;;;;;;17.30;43.90;;;;;;5090648;28;19915;-63
2022/01/29 05:40:41;;;;;;;;;;;17.30;43.90;;;;;;5091758;28;19955;-63
2022/01/29 05:43:07;;;;;;;;;;;17.40;44.00;;;;;;5091910;28;19908;-63
2022/01/29 05:45:32;;;;;;;;;;;17.40;44.00;;;;;;5091608;28;19954;-63
2022/01/29 05:47:58;;;;;;;;;;;17.30;43.90;;;;;;5091946;28;19915;-63
2022/01/29 05:50:23;;;;;;;;;;;17.30;44.00;;;;;;5093794;28;19927;-63
2022/01/29 05:52:49;;;;;;;;;;;17.40;44.10;;;;;;5095576;28;20002;-63
2022/01/29 05:55:14;;;;;;;;;;;17.40;44.10;;;;;;5094468;28;20182;-63
2022/01/29 05:57:39;;;;;;;;;;;17.40;44.00;;;;;;5095416;28;19908;-63
2022/01/29 06:00:05;;;;;;;;;;;17.40;44.00;;;;;;5093706;28;19916;-63
2022/01/29 06:02:31;;;;;;;;;;;17.40;44.00;;;;;;5094116;28;19991;-63
2022/01/29 06:04:56;;;;;;;;;;;17.40;43.90;;;;;;5095358;28;19958;-64
2022/01/29 06:07:21;;;;;;;;;;;17.40;44.00;;;;;;5093992;28;19912;-63
2022/01/29 06:09:48;;;;;;;;;;;17.40;44.00;;;;;;5095316;28;19961;-63
2022/01/29 06:12:13;;;;;;;;;;;17.40;44.00;;;;;;5095077;28;20073;-63
2022/01/29 06:14:39;;;;;;;;;;;17.40;44.00;;;;;;5093996;28;19924;-63
2022/01/29 06:17:04;;;;;;;;;;;17.40;44.00;;;;;;5094499;28;19969;-63
2022/01/29 06:19:30;;;;;;;;;;;17.40;44.00;;;;;;5093639;28;19920;-63
2022/01/29 06:21:55;;;;;;;;;;;17.40;44.00;;;;;;5110605;28;19939;-64
2022/01/29 06:24:22;;;;;;;;;;;17.40;44.70;;;;;;5093825;28;19908;-64
2022/01/29 06:26:47;;;;;;;;;;;17.40;44.10;;;;;;5094743;28;20037;-64
2022/01/29 06:29:12;;;;;;;;;;;17.40;44.10;;;;;;5093782;28;20003;-64
2022/01/29 06:31:38;;;;;;;;;;;17.40;44.10;;;;;;5094394;28;19915;-64
2022/01/29 06:34:03;;;;;;;;;;;17.40;44.10;;;;;;5094797;28;19919;-64
2022/01/29 06:36:29;;;;;;;;;;;17.40;44.10;;;;;;5093325;28;20449;-64
2022/01/29 06:38:54;;;;;;;;;;;17.40;44.10;;;;;;5127603;27;19944;-63
2022/01/29 06:41:20;;;;;;;;;;;17.40;44.20;;;;;;5094615;28;19996;-63
2022/01/29 06:43:45;;;;;;;;;;;17.40;44.20;;;;;;5110378;28;19916;-63
2022/01/29 06:46:10;;;;;;;;;;;17.40;44.10;;;;;;5094142;28;19915;-63
2022/01/29 06:48:36;;;;;;;;;;;17.40;44.20;;;;;;5094513;28;19921;-64
2022/01/29 06:51:01;;;;;;;;;;;17.40;44.20;;;;;;5093154;28;19915;-63
2022/01/29 06:53:27;;;;;;;;;;;17.40;44.20;;;;;;5093296;28;19938;-63
2022/01/29 06:55:52;;;;;;;;;;;17.40;44.30;;;;;;5094341;28;20368;-63
2022/01/29 06:58:18;;;;;;;;;;;17.40;44.30;;;;;;5093070;28;19908;-63
2022/01/29 07:00:43;;;;;;;;;;;17.40;44.30;;;;;;5126119;27;20351;-63
2022/01/29 07:03:09;;;;;;;;;;;17.40;44.20;;;;;;5093701;28;19922;-63
2022/01/29 07:05:34;;;;;;;;;;;17.40;44.20;;;;;;5094094;28;19912;-63
2022/01/29 07:07:59;;;;;;;;;;;17.40;44.30;;;;;;5092845;28;19912;-63
2022/01/29 07:10:26;;;;;;;;;;;17.40;44.30;;;;;;5092739;28;19919;-63
2022/01/29 07:12:51;;;;;;;;;;;17.50;44.40;;;;;;5094033;28;20276;-64
2022/01/29 07:15:17;;;;;;;;;;;17.50;44.40;;;;;;5126211;27;19908;-63
2022/01/29 07:17:42;;;;;;;;;;;17.40;44.30;;;;;;5094059;28;19909;-63
2022/01/29 07:20:08;;;;;;;;;;;17.40;44.40;;;;;;5093505;28;19920;-63
2022/01/29 07:22:33;;;;;;;;;;;17.50;44.40;;;;;;5094012;28;19908;-63
2022/01/29 07:24:59;;;;;;;;;;;17.40;44.40;;;;;;5093639;28;19979;-63
2022/01/29 07:27:24;;;;;;;;;;;17.40;44.40;;;;;;5078030;28;19997;-63
2022/01/29 07:29:50;;;;;;;;;;;17.40;44.40;;;;;;5073361;28;19915;-63
2022/01/29 07:32:15;;;;;;;;;;;17.40;44.50;;;;;;5071723;28;19912;-63
2022/01/29 07:34:41;;;;;;;;;;;17.40;44.50;;;;;;5073442;28;19908;-63
2022/01/29 07:37:06;;;;;;;;;;;17.40;44.50;;;;;;5071982;28;19909;-63
2022/01/29 07:39:31;;;;;;;;;;;17.40;44.50;;;;;;5071890;28;20281;-63
2022/01/29 07:41:57;;;;;;;;;;;17.40;44.50;;;;;;5073069;28;19944;-63
2022/01/29 07:44:22;;;;;;;;;;;17.40;44.50;;;;;;5073320;28;20343;-63
2022/01/29 07:46:48;;;;;;;;;;;17.40;44.50;;;;;;5072613;28;19909;-63
2022/01/29 07:49:13;;;;;;;;;;;17.40;44.50;;;;;;5073201;28;19912;-63
2022/01/29 07:51:39;;;;;;;;;;;17.40;44.60;;;;;;5073137;28;19913;-63
2022/01/29 07:54:04;;;;;;;;;;;17.40;44.60;;;;;;5072940;28;20124;-63
2022/01/29 07:56:30;;;;;;;;;;;17.40;44.60;;;;;;5074483;28;19909;-63
2022/01/29 07:58:55;;;;;;;;;;;17.40;44.60;;;;;;5092781;28;19919;-63
2022/01/29 08:01:21;;;;;;;;;;;17.40;44.60;;;;;;5092061;28;19908;-63
2022/01/29 08:03:48;;;;;;;;;;;17.40;44.60;;;;;;5092848;28;20349;-63
2022/01/29 08:06:14;;;;;;;;;;;17.40;44.60;;;;;;5125267;27;19908;-63
2022/01/29 08:08:40;;;;;;;;;;;17.40;44.70;;;;;;5092973;28;20007;-63
2022/01/29 08:11:06;;;;;;;;;;;17.40;44.70;;;;;;5092821;28;20384;-64
2022/01/29 08:13:31;;;;;;;;;;;17.40;44.70;;;;;;5074415;28;20356;-64
2022/01/29 08:15:56;;;;;;;;;;;17.40;44.70;;;;;;5091062;28;20007;-64
2022/01/29 08:18:22;;;;;;;;;;;17.40;44.70;;;;;;5092862;28;19946;-64
2022/01/29 08:20:47;;;;;;;;;;;17.40;44.70;;;;;;5092467;28;19966;-64
2022/01/29 08:23:13;;;;;;;;;;;17.40;44.80;;;;;;5092665;28;20295;-64
2022/01/29 08:25:38;;;;;;;;;;;17.50;44.80;;;;;;5092654;28;20279;-64
2022/01/29 08:28:05;;;;;;;;;;;17.50;44.80;;;;;;5091839;27;20374;-64
2022/01/29 08:30:31;;;;;;;;;;;17.50;44.80;;;;;;5092213;28;19989;-64
2022/01/29 08:32:56;;;;;;;;;;;17.50;44.80;;;;;;5092629;28;19931;-64
2022/01/29 08:35:22;;;;;;;;;;;17.50;44.80;;;;;;5092820;28;20006;-64
2022/01/29 08:37:47;;;;;;;;;;;17.50;44.90;;;;;;5092590;28;20426;-64
2022/01/29 08:40:13;;;;;;;;;;;17.50;44.90;;;;;;5091069;28;20007;-64
2022/01/29 08:42:38;;;;;;;;;;;17.40;44.80;;;;;;5125242;27;19908;-64
2022/01/29 08:45:04;;;;;;;;;;;17.50;44.90;;;;;;5090621;28;19920;-64
2022/01/29 08:47:30;;;;;;;;;;;17.50;44.90;;;;;;5092334;28;19953;-64
2022/01/29 08:49:55;;;;;;;;;;;17.50;45.00;;;;;;5091123;28;19966;-64
2022/01/29 08:52:21;;;;;;;;;;;17.50;44.90;;;;;;5092227;28;20353;-64
2022/01/29 08:54:46;;;;;;;;;;;17.50;45.00;;;;;;5092231;28;19953;-64
2022/01/29 08:57:12;;;;;;;;;;;17.50;45.00;;;;;;5092135;28;20283;-64
2022/01/29 08:59:37;;;;;;;;;;;17.50;45.00;;;;;;5092075;28;19912;-64
2022/01/29 09:02:03;;;;;;;;;;;17.50;45.00;;;;;;5091628;28;19909;-64
2022/01/29 09:04:28;;;;;;;;;;;17.50;45.10;;;;;;5092077;28;19908;-63
2022/01/29 09:06:54;;;;;;;;;;;17.50;45.10;;;;;;5092378;28;19953;-63
2022/01/29 09:09:24;;;;;;;;;;;17.40;45.10;;;;;;5074080;28;19916;-63
2022/01/29 09:11:51;;;;;;;;;;;17.40;45.10;;;;;;5092007;28;20013;-63
2022/01/29 09:14:16;;;;;;;;;;;17.40;45.10;;;;;;5092137;28;19955;-63
2022/01/29 09:16:42;;;;;;;;;;;17.40;45.20;;;;;;5090431;28;19908;-63
2022/01/29 09:19:07;;;;;;;;;;;17.40;45.20;;;;;;5092021;28;20318;-64
2022/01/29 09:21:33;;;;;;;;;;;17.40;45.20;;;;;;5091766;28;20433;-64
2022/01/29 09:23:58;;;;;;;;;;;17.40;45.30;;;;;;5092114;28;19919;-64
2022/01/29 09:26:23;;;;;;;;;;;17.40;45.30;;;;;;5095705;28;19912;-64
2022/01/29 09:28:49;;;;;;;;;;;17.40;45.40;;;;;;5096432;28;19916;-64
2022/01/29 09:31:14;;;;;;;;;;;17.40;45.50;;;;;;5128286;27;19912;-64
2022/01/29 09:33:40;;;;;;;;;;;17.40;45.50;;;;;;5128868;27;19915;-64
2022/01/29 09:36:05;;;;;;;;;;;17.40;45.50;;;;;;5095738;28;19912;-64
2022/01/29 09:38:31;;;;;;;;;;;17.40;45.50;;;;;;5094683;28;20002;-64
2022/01/29 09:40:56;;;;;;;;;;;17.40;45.50;;;;;;5095634;28;20006;-64
2022/01/29 09:43:23;;;;;;;;;;;17.40;45.50;;;;;;5094619;28;19908;-63
2022/01/29 09:45:50;;;;;;;;;;;17.40;45.50;;;;;;5093955;28;20706;-63
2022/01/29 09:48:18;;;;;;;;;;;17.40;45.60;;;;;;5094554;28;20010;-63
2022/01/29 09:50:44;;;;;;;;;;;17.40;45.60;;;;;;5094258;28;19914;-63
2022/01/29 09:53:09;;;;;;;;;;;17.40;45.60;;;;;;5095644;28;19912;-63
2022/01/29 09:55:35;;;;;;;;;;;17.40;45.60;;;;;;5094122;28;19912;-63
2022/01/29 09:58:00;;;;;;;;;;;17.40;45.60;;;;;;5094236;28;19957;-63
2022/01/29 10:00:25;;;;;;;;;;;17.40;45.70;;;;;;5093733;28;19963;-64
2022/01/29 10:03:09;;;;;;;;;;;17.40;45.80;;;;;;5094078;28;20010;-64
2022/01/29 10:05:35;;;;;;;;;;;17.40;45.70;;;;;;5093921;28;19994;-64
2022/01/29 10:08:01;;;;;;;;;;;17.40;45.70;;;;;;5094082;28;19999;-64
2022/01/29 10:10:26;;;;;;;;;;;17.40;45.80;;;;;;5093915;28;19914;-64
2022/01/29 10:12:52;;;;;;;;;;;17.40;45.80;;;;;;5093857;28;19915;-64
2022/01/29 10:15:17;;;;;;;;;;;17.40;45.90;;;;;;5094602;28;19909;-64
2022/01/29 10:17:46;;;;;;;;;;;17.40;45.90;;;;;;5110678;28;19915;-64
2022/01/29 10:20:17;;;;;;;;;;;17.40;46.00;;;;;;5094595;28;19920;-63
2022/01/29 10:22:55;;;;;;;;;;;17.40;46.00;;;;;;5093719;28;19915;-63
2022/01/29 10:25:28;;;;;;;;;;;17.40;46.00;;;;;;5094988;28;19908;-63
2022/01/29 10:28:06;;;;;;;;;;;17.40;45.90;;;;;;5094938;28;20002;-63
2022/01/29 10:30:33;;;;;;;;;;;17.40;46.00;;;;;;5093027;28;19912;-63
2022/01/29 10:33:15;;;;;;;;;;;17.40;46.10;;;;;;5093616;28;19915;-63
2022/01/29 10:35:41;;;;;;;;;;;17.40;46.10;;;;;;5093369;28;19933;-63
2022/01/29 10:38:06;;;;;;;;;;;17.40;46.00;;;;;;5094840;28;19947;-63
2022/01/29 10:40:34;;;;;;;;;;;17.40;46.10;;;;;;5093192;28;19958;-63
2022/01/29 10:43:03;;;;;;;;;;;17.40;46.10;;;;;;5093534;28;19934;-63
2022/01/29 10:45:33;;;;;;;;;;;17.40;46.10;;;;;;5094102;28;19912;-63
2022/01/29 10:47:58;;;;;;;;;;;17.40;46.10;;;;;;5094951;28;19955;-63
2022/01/29 10:50:24;;;;;;;;;;;17.40;46.10;;;;;;5093187;28;19936;-63
2022/01/29 10:52:50;;;;;;;;;;;17.40;46.10;;;;;;5094491;28;20334;-64
2022/01/29 10:55:15;;;;;;;;;;;17.40;46.10;;;;;;5094401;28;19913;-64
2022/01/29 10:57:42;;;;;;;;;;;17.40;46.10;;;;;;5094378;28;19961;-64
2022/01/29 11:00:08;;;;;;;;;;;17.40;46.10;;;;;;5093804;28;20367;-63
2022/01/29 11:02:34;;;;;;;;;;;17.40;46.10;;;;;;5094223;28;19912;-63
2022/01/29 11:05:02;;;;;;;;;;;17.40;46.20;;;;;;5094185;28;19961;-63
2022/01/29 11:07:28;;;;;;;;;;;17.40;46.20;;;;;;5094205;28;19916;-63
2022/01/29 11:09:54;;;;;;;;;;;17.40;46.20;;;;;;5092874;28;19908;-63
2022/01/29 11:12:23;;;;;;;;;;;17.40;46.20;;;;;;5092891;28;19912;-63
2022/01/29 11:14:49;;;;;;;;;;;17.40;46.20;;;;;;5094083;28;19994;-63
2022/01/29 11:17:18;;;;;;;;;;;17.40;46.30;;;;;;5093577;28;19916;-63
2022/01/29 11:19:44;;;;;;;;;;;17.40;46.40;;;;;;5109837;27;19920;-63
2022/01/29 11:22:09;;;;;;;;;;;17.40;46.40;;;;;;5092547;28;19912;-63
2022/01/29 11:24:35;;;;;;;;;;;17.40;46.40;;;;;;5092602;28;19966;-63
2022/01/29 11:27:02;;;;;;;;;;;17.40;46.40;;;;;;5092354;28;20356;-64
2022/01/29 11:29:36;;;;;;;;;;;17.40;46.40;;;;;;5093753;28;19908;-64
2022/01/29 11:32:20;;;;;;;;;;;17.50;46.50;;;;;;5091972;28;19951;-64
2022/01/29 11:35:04;;;;;;;;;;;17.50;46.50;;;;;;5093641;28;19919;-64
2022/01/29 11:37:38;;;;;;;;;;;17.50;46.40;;;;;;5093682;28;19912;-64
2022/01/29 11:40:20;;;;;;;;;;;17.50;46.50;;;;;;5093391;28;19955;-64
2022/01/29 11:42:52;;;;;;;;;;;17.50;46.50;;;;;;5093536;28;19951;-64
2022/01/29 11:45:31;;;;;;;;;;;17.50;46.60;;;;;;5092989;28;19957;-64
2022/01/29 11:47:57;;;;;;;;;;;17.50;46.60;;;;;;5091974;28;19998;-64
2022/01/29 11:50:28;;;;;;;;;;;17.50;46.60;;;;;;5093222;28;20007;-62
2022/01/29 11:53:00;;;;;;;;;;;17.50;46.60;;;;;;5093217;28;19934;-63
2022/01/29 11:55:35;;;;;;;;;;;17.50;46.70;;;;;;5091851;28;19912;-63
2022/01/29 11:58:13;;;;;;;;;;;17.50;46.70;;;;;;5091946;28;19959;-63
2022/01/29 12:00:38;;;;;;;;;;;17.50;46.70;;;;;;5092660;28;20372;-63
2022/01/29 12:03:04;;;;;;;;;;;17.50;46.70;;;;;;5091862;28;19919;-64
2022/01/29 12:05:31;;;;;;;;;;;17.50;46.70;;;;;;5125778;27;19912;-64
2022/01/29 12:08:06;;;;;;;;;;;17.50;46.80;;;;;;5091813;28;19918;-64
2022/01/29 12:10:35;;;;;;;;;;;17.50;46.70;;;;;;5092848;28;19934;-64
2022/01/29 12:13:11;;;;;;;;;;;17.50;46.70;;;;;;5091693;28;20416;-64
2022/01/29 12:15:37;;;;;;;;;;;17.50;46.80;;;;;;5092284;28;19955;-63
2022/01/29 12:18:05;;;;;;;;;;;17.50;46.70;;;;;;5091687;28;19936;-63
2022/01/29 12:20:30;;;;;;;;;;;17.50;46.80;;;;;;5074488;28;19920;-63
2022/01/29 12:22:59;;;;;;;;;;;17.50;46.80;;;;;;5092762;28;19999;-63
2022/01/29 12:25:28;;;;;;;;;;;17.50;46.90;;;;;;5091444;28;19947;-63
2022/01/29 12:27:55;;;;;;;;;;;17.50;46.90;;;;;;5091377;28;19958;-63
2022/01/29 12:30:24;;;;;;;;;;;17.50;46.90;;;;;;5090990;28;19952;-64
2022/01/29 12:32:54;;;;;;;;;;;17.50;47.00;;;;;;5091622;28;19908;-64
2022/01/29 12:35:19;;;;;;;;;;;17.50;47.00;;;;;;5091374;28;20373;-64
2022/01/29 12:37:54;;;;;;;;;;;17.50;47.00;;;;;;5091330;28;19948;-64
2022/01/29 12:40:21;;;;;;;;;;;17.50;47.00;;;;;;5092343;28;19916;-64
2022/01/29 12:42:56;;;;;;;;;;;17.50;47.10;;;;;;5092491;28;19916;-64
2022/01/29 12:45:22;;;;;;;;;;;17.50;47.10;;;;;;5092059;28;19943;-64
2022/01/29 12:47:48;;;;;;;;;;;17.50;47.10;;;;;;5091248;28;19998;-64
2022/01/29 12:50:20;;;;;;;;;;;17.50;47.10;;;;;;5092129;28;20554;-64
2022/01/29 12:52:46;;;;;;;;;;;17.50;47.10;;;;;;5091113;28;20086;-64
2022/01/29 12:55:11;;;;;;;;;;;17.50;47.10;;;;;;5092282;28;19919;-64
2022/01/29 12:57:44;;;;;;;;;;;17.50;47.10;;;;;;5091143;28;19969;-64
2022/01/29 13:00:10;;;;;;;;;;;17.50;47.10;;;;;;5089676;28;19916;-64
2022/01/29 13:02:36;;;;;;;;;;;17.50;47.10;;;;;;5092218;28;19915;-64
2022/01/29 13:05:02;;;;;;;;;;;17.50;47.20;;;;;;5090867;28;20288;-64
2022/01/29 13:07:27;;;;;;;;;;;17.50;47.20;;;;;;5092442;28;19908;-64
2022/01/29 13:09:53;;;;;;;;;;;17.50;47.20;;;;;;5092067;28;19915;-64
2022/01/29 13:12:19;;;;;;;;;;;17.50;47.30;;;;;;5090870;28;19914;-64
2022/01/29 13:14:48;;;;;;;;;;;17.50;47.20;;;;;;5092098;28;19912;-64
2022/01/29 13:17:16;;;;;;;;;;;17.50;47.20;;;;;;5090514;28;19908;-64
2022/01/29 13:19:43;;;;;;;;;;;17.50;47.20;;;;;;5124691;28;19920;-63
2022/01/29 13:22:09;;;;;;;;;;;17.50;47.30;;;;;;5090926;28;19909;-63
2022/01/29 13:24:39;;;;;;;;;;;17.50;47.30;;;;;;5107950;28;19923;-63
2022/01/29 13:27:09;;;;;;;;;;;17.50;47.40;;;;;;5124768;28;19912;-63
2022/01/29 13:29:41;;;;;;;;;;;17.40;47.40;;;;;;5091060;28;19934;-63
2022/01/29 13:32:07;;;;;;;;;;;17.50;47.40;;;;;;5091577;28;19916;-63
2022/01/29 13:34:37;;;;;;;;;;;17.50;47.40;;;;;;5090824;28;19908;-63
2022/01/29 13:37:05;;;;;;;;;;;17.50;47.40;;;;;;5073659;28;19909;-63
2022/01/29 13:39:45;;;;;;;;;;;17.50;47.40;;;;;;5107945;28;20007;-63
2022/01/29 13:42:14;;;;;;;;;;;17.50;47.40;;;;;;5090769;28;19908;-63
2022/01/29 13:44:43;;;;;;;;;;;17.50;47.40;;;;;;5092044;28;19957;-63
2022/01/29 13:47:09;;;;;;;;;;;17.50;47.40;;;;;;5089969;28;19991;-63
2022/01/29 13:49:35;;;;;;;;;;;17.50;47.40;;;;;;5090778;28;19948;-63
2022/01/29 13:52:14;;;;;;;;;;;17.50;47.40;;;;;;5090533;28;19908;-63
2022/01/29 13:54:39;;;;;;;;;;;17.50;47.40;;;;;;5090631;28;19946;-63
2022/01/29 13:57:06;;;;;;;;;;;17.50;47.40;;;;;;5091497;28;20299;-63
2022/01/29 13:59:31;;;;;;;;;;;17.50;47.40;;;;;;5091800;28;20376;-63
2022/01/29 14:02:01;;;;;;;;;;;17.50;47.40;;;;;;5090003;28;19908;-63
2022/01/29 14:04:32;;;;;;;;;;;17.50;47.50;;;;;;5091604;28;19922;-63
2022/01/29 14:06:59;;;;;;;;;;;17.50;47.50;;;;;;5098316;28;19908;-64
2022/01/29 14:09:33;;;;;;;;;;;17.50;47.60;;;;;;5090495;28;20054;-64
2022/01/29 14:12:05;;;;;;;;;;;17.50;47.60;;;;;;5094314;28;19915;-64
2022/01/29 14:14:46;;;;;;;;;;;17.50;47.60;;;;;;5095141;28;19912;-64
2022/01/29 14:17:31;;;;;;;;;;;17.50;47.60;;;;;;5094627;28;19915;-64
2022/01/29 14:19:58;;;;;;;;;;;17.50;47.70;;;;;;5094617;28;19927;-64
2022/01/29 14:22:24;;;;;;;;;;;17.50;47.70;;;;;;5094707;28;19908;-64
2022/01/29 14:24:51;;;;;;;;;;;17.50;47.70;;;;;;5094798;28;19912;-64
2022/01/29 14:27:16;;;;;;;;;;;17.50;47.70;;;;;;5127557;27;20423;-64